Time;durP1;ratioP1;P1;durP2;ratioP2;P2;SDS_P1;SDS_P2;PMS_P1;PMS_P2;Temp;Humidity;BMP_temperature;BMP_pressure;BME280_temperature;BME280_humidity;BME280_pressure;Samples;Min_cycle;Max_cycle;Signal;HPM_P1;HPM_P2
2022/03/07 00:00:09;;;;;;;0.13;0.10;;;;;;;;;;4213222;28;20052;-66
2022/03/07 00:02:11;;;;;;;0.00;0.00;;;;;;;;;;4194431;28;20063;-66
2022/03/07 00:04:14;;;;;;;0.20;0.10;;;;;;;;;;4213061;28;20486;-66
2022/03/07 00:06:15;;;;;;;0.10;0.10;;;;;;;;;;4212788;28;20052;-68
2022/03/07 00:08:16;;;;;;;0.40;0.30;;;;;;;;;;4212806;28;20040;-66
2022/03/07 00:10:17;;;;;;;0.20;0.10;;;;;;;;;;4211625;28;20093;-67
2022/03/07 00:12:18;;;;;;;0.98;0.20;;;;;;;;;;4211263;28;20051;-66
2022/03/07 00:14:19;;;;;;;0.30;0.10;;;;;;;;;;4211487;28;20047;-67
2022/03/07 00:16:20;;;;;;;0.32;0.10;;;;;;;;;;4212490;28;20102;-66
2022/03/07 00:18:21;;;;;;;0.13;0.10;;;;;;;;;;4212363;28;20095;-67
2022/03/07 00:20:21;;;;;;;0.13;0.10;;;;;;;;;;4212755;28;20123;-66
2022/03/07 00:22:22;;;;;;;0.40;0.10;;;;;;;;;;4212610;28;20098;-66
2022/03/07 00:24:23;;;;;;;0.10;0.10;;;;;;;;;;4212551;28;20170;-66
2022/03/07 00:26:24;;;;;;;0.20;0.15;;;;;;;;;;4212678;28;20048;-66
2022/03/07 00:28:25;;;;;;;0.13;0.10;;;;;;;;;;4211540;28;20131;-67
2022/03/07 00:30:26;;;;;;;0.00;0.00;;;;;;;;;;4212863;28;20376;-66
2022/03/07 00:32:27;;;;;;;0.00;0.00;;;;;;;;;;4211340;28;20051;-66
2022/03/07 00:34:29;;;;;;;0.10;0.10;;;;;;;;;;4212561;28;20093;-66
2022/03/07 00:36:30;;;;;;;0.10;0.10;;;;;;;;;;4210352;28;20048;-66
2022/03/07 00:38:31;;;;;;;0.73;0.10;;;;;;;;;;4212443;28;20113;-66
2022/03/07 00:40:32;;;;;;;0.45;0.10;;;;;;;;;;4212770;28;20043;-66
2022/03/07 00:42:33;;;;;;;0.13;0.10;;;;;;;;;;4212382;28;20108;-66
2022/03/07 00:44:35;;;;;;;0.10;0.10;;;;;;;;;;4194514;28;20055;-66
2022/03/07 00:46:38;;;;;;;0.47;0.10;;;;;;;;;;4194568;28;20409;-66
2022/03/07 00:48:39;;;;;;;0.10;0.10;;;;;;;;;;4212602;28;20044;-66
2022/03/07 00:50:42;;;;;;;0.20;0.10;;;;;;;;;;4194258;28;20491;-66
2022/03/07 00:52:43;;;;;;;0.25;0.10;;;;;;;;;;4212300;28;20059;-66
2022/03/07 00:54:44;;;;;;;0.13;0.10;;;;;;;;;;4212382;28;20051;-67
2022/03/07 00:56:45;;;;;;;0.10;0.10;;;;;;;;;;4212239;28;20178;-67
2022/03/07 00:58:46;;;;;;;0.00;0.00;;;;;;;;;;4194301;28;20170;-66
2022/03/07 01:00:48;;;;;;;0.20;0.10;;;;;;;;;;4194306;28;20056;-66
2022/03/07 01:02:49;;;;;;;0.50;0.20;;;;;;;;;;4212082;28;20051;-66
2022/03/07 01:04:50;;;;;;;0.20;0.17;;;;;;;;;;4212209;28;20151;-66
2022/03/07 01:06:51;;;;;;;0.20;0.13;;;;;;;;;;4193844;28;20082;-66
2022/03/07 01:08:52;;;;;;;0.10;0.05;;;;;;;;;;4215482;28;20044;-66
2022/03/07 01:10:53;;;;;;;0.20;0.10;;;;;;;;;;4215436;28;20108;-69
2022/03/07 01:12:56;;;;;;;0.10;0.10;;;;;;;;;;4197541;28;20040;-67
2022/03/07 01:14:56;;;;;;;0.08;0.08;;;;;;;;;;4215897;28;20051;-66
2022/03/07 01:16:57;;;;;;;0.45;0.10;;;;;;;;;;4197285;28;20110;-66
2022/03/07 01:18:58;;;;;;;0.10;0.10;;;;;;;;;;4197428;28;20190;-66
2022/03/07 01:20:59;;;;;;;0.10;0.10;;;;;;;;;;4215398;28;20101;-66
2022/03/07 01:23:02;;;;;;;0.00;0.00;;;;;;;;;;4215334;28;20059;-66
2022/03/07 01:25:05;;;;;;;0.05;0.00;;;;;;;;;;4197819;28;20056;-66
2022/03/07 01:27:06;;;;;;;0.08;0.00;;;;;;;;;;4215279;28;20136;-67
2022/03/07 01:29:08;;;;;;;0.47;0.10;;;;;;;;;;4197444;28;20158;-66
2022/03/07 01:31:09;;;;;;;0.22;0.10;;;;;;;;;;4197059;28;20071;-66
2022/03/07 01:33:10;;;;;;;0.38;0.10;;;;;;;;;;4214931;28;20064;-66
2022/03/07 01:35:11;;;;;;;0.68;0.10;;;;;;;;;;4197177;28;20404;-66
2022/03/07 01:37:12;;;;;;;0.25;0.10;;;;;;;;;;4196792;28;20057;-66
2022/03/07 01:39:13;;;;;;;0.25;0.25;;;;;;;;;;4197112;28;20110;-68
2022/03/07 01:41:13;;;;;;;0.30;0.10;;;;;;;;;;4215238;28;20059;-67
2022/03/07 01:43:15;;;;;;;0.90;0.10;;;;;;;;;;4215252;28;20063;-66
2022/03/07 01:45:17;;;;;;;0.38;0.25;;;;;;;;;;4214797;28;20083;-66
2022/03/07 01:47:18;;;;;;;0.10;0.10;;;;;;;;;;4214366;28;20048;-66
2022/03/07 01:49:19;;;;;;;0.30;0.10;;;;;;;;;;4214871;28;20094;-67
2022/03/07 01:51:20;;;;;;;0.00;0.00;;;;;;;;;;4214982;28;20048;-66
2022/03/07 01:53:22;;;;;;;0.10;0.03;;;;;;;;;;4196545;28;20086;-67
2022/03/07 01:55:23;;;;;;;0.40;0.10;;;;;;;;;;4196652;28;20518;-66
2022/03/07 01:57:29;;;;;;;0.00;0.00;;;;;;;;;;4164309;28;20087;-67
2022/03/07 01:59:30;;;;;;;0.20;0.10;;;;;;;;;;4196763;28;20055;-66
2022/03/07 02:01:31;;;;;;;0.35;0.10;;;;;;;;;;4197020;28;20110;-66
2022/03/07 02:03:32;;;;;;;0.38;0.28;;;;;;;;;;4196104;28;20511;-66
2022/03/07 02:05:33;;;;;;;0.10;0.10;;;;;;;;;;4196593;28;20526;-66
2022/03/07 02:07:39;;;;;;;0.35;0.20;;;;;;;;;;4214565;28;20106;-66
2022/03/07 02:09:40;;;;;;;0.20;0.10;;;;;;;;;;4196789;28;20098;-67
2022/03/07 02:11:46;;;;;;;0.10;0.10;;;;;;;;;;4196412;28;20162;-67
2022/03/07 02:13:49;;;;;;;0.10;0.10;;;;;;;;;;4214647;28;20384;-66
2022/03/07 02:15:56;;;;;;;0.17;0.10;;;;;;;;;;4196742;28;20056;-66
2022/03/07 02:18:01;;;;;;;0.15;0.10;;;;;;;;;;4196195;28;20064;-66
2022/03/07 02:20:03;;;;;;;0.03;0.03;;;;;;;;;;4178691;28;20057;-67
2022/03/07 02:22:04;;;;;;;0.25;0.10;;;;;;;;;;4196658;28;20052;-66
2022/03/07 02:24:08;;;;;;;0.15;0.10;;;;;;;;;;4196504;28;20060;-66
2022/03/07 02:26:16;;;;;;;0.10;0.10;;;;;;;;;;4196495;28;20048;-67
2022/03/07 02:28:18;;;;;;;0.03;0.03;;;;;;;;;;4196253;28;20098;-67
2022/03/07 02:30:19;;;;;;;0.13;0.10;;;;;;;;;;4196491;28;20094;-67
2022/03/07 02:32:21;;;;;;;0.30;0.20;;;;;;;;;;4195957;28;20049;-66
2022/03/07 02:34:23;;;;;;;0.00;0.00;;;;;;;;;;4196610;28;20158;-67
2022/03/07 02:36:24;;;;;;;0.17;0.10;;;;;;;;;;4196093;28;20102;-66
2022/03/07 02:38:26;;;;;;;0.10;0.10;;;;;;;;;;4179700;28;20052;-66
2022/03/07 02:40:27;;;;;;;0.05;0.05;;;;;;;;;;4196002;28;20048;-66
2022/03/07 02:42:28;;;;;;;0.10;0.10;;;;;;;;;;4196325;28;20578;-66
2022/03/07 02:44:30;;;;;;;0.20;0.10;;;;;;;;;;4196180;28;20139;-66
2022/03/07 02:46:31;;;;;;;0.10;0.10;;;;;;;;;;4195910;28;20052;-67
2022/03/07 02:48:32;;;;;;;0.10;0.10;;;;;;;;;;4195605;28;20048;-66
2022/03/07 02:50:33;;;;;;;0.10;0.10;;;;;;;;;;4195844;28;20105;-65
2022/03/07 02:52:34;;;;;;;0.00;0.00;;;;;;;;;;4213660;28;20044;-67
2022/03/07 02:54:35;;;;;;;0.00;0.00;;;;;;;;;;4213930;28;20093;-67
2022/03/07 02:56:37;;;;;;;0.10;0.10;;;;;;;;;;4213800;28;20173;-67
2022/03/07 02:58:38;;;;;;;0.10;0.10;;;;;;;;;;4213575;28;20048;-67
2022/03/07 03:00:39;;;;;;;0.03;0.00;;;;;;;;;;4195943;28;20052;-65
2022/03/07 03:02:40;;;;;;;0.15;0.10;;;;;;;;;;4178678;28;20234;-66
2022/03/07 03:04:42;;;;;;;0.15;0.10;;;;;;;;;;4213663;28;20485;-67
2022/03/07 03:06:43;;;;;;;0.10;0.10;;;;;;;;;;4213532;28;20059;-67
2022/03/07 03:08:44;;;;;;;0.00;0.00;;;;;;;;;;4213913;28;20058;-66
2022/03/07 03:10:44;;;;;;;0.00;0.00;;;;;;;;;;4213984;28;20150;-67
2022/03/07 03:12:46;;;;;;;0.13;0.10;;;;;;;;;;4213935;28;20040;-66
2022/03/07 03:14:47;;;;;;;0.20;0.10;;;;;;;;;;4213929;28;20044;-66
2022/03/07 03:16:47;;;;;;;0.10;0.10;;;;;;;;;;4212139;28;20481;-66
2022/03/07 03:18:48;;;;;;;0.03;0.03;;;;;;;;;;4213558;28;20048;-67
2022/03/07 03:20:51;;;;;;;0.40;0.20;;;;;;;;;;4212277;28;20112;-67
2022/03/07 03:22:51;;;;;;;0.15;0.10;;;;;;;;;;4213898;28;20109;-66
2022/03/07 03:24:52;;;;;;;0.10;0.10;;;;;;;;;;4213700;28;20196;-66
2022/03/07 03:26:53;;;;;;;0.20;0.20;;;;;;;;;;4213424;28;20051;-66
2022/03/07 03:28:54;;;;;;;0.40;0.20;;;;;;;;;;4213432;28;20094;-67
2022/03/07 03:30:55;;;;;;;0.10;0.10;;;;;;;;;;4213415;28;20104;-67
2022/03/07 03:32:56;;;;;;;0.10;0.10;;;;;;;;;;4212846;28;20482;-66
2022/03/07 03:34:57;;;;;;;0.15;0.10;;;;;;;;;;4212089;28;20123;-66
2022/03/07 03:36:58;;;;;;;0.30;0.10;;;;;;;;;;4213420;28;20098;-66
2022/03/07 03:38:58;;;;;;;0.10;0.10;;;;;;;;;;4213631;28;20130;-66
2022/03/07 03:40:59;;;;;;;0.25;0.10;;;;;;;;;;4212249;28;20048;-66
2022/03/07 03:43:00;;;;;;;0.10;0.10;;;;;;;;;;4213094;28;20458;-66
2022/03/07 03:45:05;;;;;;;0.28;0.10;;;;;;;;;;4213785;28;20062;-66
2022/03/07 03:47:06;;;;;;;0.13;0.10;;;;;;;;;;4194752;28;20118;-66
2022/03/07 03:49:07;;;;;;;0.30;0.10;;;;;;;;;;4213178;28;20047;-66
2022/03/07 03:51:08;;;;;;;0.10;0.10;;;;;;;;;;4211733;28;20048;-66
2022/03/07 03:53:09;;;;;;;0.13;0.10;;;;;;;;;;4212840;28;20491;-65
2022/03/07 03:55:11;;;;;;;0.10;0.10;;;;;;;;;;4213121;28;20051;-66
2022/03/07 03:57:12;;;;;;;0.20;0.10;;;;;;;;;;4213152;28;20495;-66
2022/03/07 03:59:13;;;;;;;0.10;0.10;;;;;;;;;;4211887;28;20098;-66
2022/03/07 04:01:14;;;;;;;0.20;0.10;;;;;;;;;;4211527;28;20470;-66
2022/03/07 04:03:15;;;;;;;0.65;0.10;;;;;;;;;;4211159;28;20536;-66
2022/03/07 04:05:16;;;;;;;0.47;0.10;;;;;;;;;;4212965;28;20051;-66
2022/03/07 04:07:17;;;;;;;0.30;0.20;;;;;;;;;;4213028;28;20475;-66
2022/03/07 04:09:18;;;;;;;0.10;0.10;;;;;;;;;;4212983;28;20131;-66
2022/03/07 04:11:21;;;;;;;0.10;0.10;;;;;;;;;;4213278;28;20048;-66
2022/03/07 04:13:21;;;;;;;0.10;0.10;;;;;;;;;;4212952;28;20048;-66
2022/03/07 04:15:22;;;;;;;0.10;0.08;;;;;;;;;;4211503;28;20173;-66
2022/03/07 04:17:23;;;;;;;0.10;0.10;;;;;;;;;;4212496;28;20368;-66
2022/03/07 04:19:25;;;;;;;1.00;0.22;;;;;;;;;;4211455;28;20089;-66
2022/03/07 04:21:26;;;;;;;0.28;0.20;;;;;;;;;;4211417;28;20155;-66
2022/03/07 04:23:27;;;;;;;0.25;0.10;;;;;;;;;;4212898;28;20051;-66
2022/03/07 04:25:28;;;;;;;0.00;0.00;;;;;;;;;;4212947;28;20135;-66
2022/03/07 04:27:30;;;;;;;0.20;0.20;;;;;;;;;;4212614;28;20048;-66
2022/03/07 04:29:30;;;;;;;0.25;0.10;;;;;;;;;;4212548;28;20052;-66
2022/03/07 04:31:32;;;;;;;0.10;0.00;;;;;;;;;;4212876;28;20056;-66
2022/03/07 04:33:33;;;;;;;0.00;0.00;;;;;;;;;;4212483;28;20039;-67
2022/03/07 04:35:34;;;;;;;0.20;0.10;;;;;;;;;;4212655;28;20055;-67
2022/03/07 04:37:35;;;;;;;0.10;0.10;;;;;;;;;;4212378;28;20052;-67
2022/03/07 04:39:35;;;;;;;0.10;0.10;;;;;;;;;;4194597;28;20052;-67
2022/03/07 04:41:37;;;;;;;0.10;0.10;;;;;;;;;;4212896;28;20113;-66
2022/03/07 04:43:38;;;;;;;0.10;0.08;;;;;;;;;;4213891;28;20422;-67
2022/03/07 04:45:39;;;;;;;0.13;0.13;;;;;;;;;;4216000;28;20062;-67
2022/03/07 04:47:40;;;;;;;0.10;0.10;;;;;;;;;;4215768;28;20071;-66
2022/03/07 04:49:41;;;;;;;0.22;0.15;;;;;;;;;;4216364;28;20059;-68
2022/03/07 04:51:45;;;;;;;0.20;0.10;;;;;;;;;;4214291;28;20482;-67
2022/03/07 04:53:46;;;;;;;0.20;0.10;;;;;;;;;;4215569;28;20406;-67
2022/03/07 04:55:47;;;;;;;0.13;0.13;;;;;;;;;;4214403;28;20085;-66
2022/03/07 04:57:48;;;;;;;0.20;0.10;;;;;;;;;;4215555;28;20048;-67
2022/03/07 04:59:49;;;;;;;0.30;0.20;;;;;;;;;;4214543;28;20126;-67
2022/03/07 05:01:50;;;;;;;0.00;0.00;;;;;;;;;;4215634;28;20171;-67
2022/03/07 05:03:51;;;;;;;0.25;0.20;;;;;;;;;;4215956;28;20440;-66
2022/03/07 05:05:51;;;;;;;0.15;0.10;;;;;;;;;;4215878;28;20478;-68
2022/03/07 05:07:53;;;;;;;0.30;0.10;;;;;;;;;;4214371;28;20052;-67
2022/03/07 05:09:54;;;;;;;0.20;0.10;;;;;;;;;;4215685;28;20048;-67
2022/03/07 05:11:55;;;;;;;0.00;0.00;;;;;;;;;;4215407;28;20083;-66
2022/03/07 05:13:56;;;;;;;0.00;0.00;;;;;;;;;;4215678;28;20106;-67
2022/03/07 05:15:57;;;;;;;0.40;0.10;;;;;;;;;;4214263;28;20460;-67
2022/03/07 05:17:58;;;;;;;0.10;0.10;;;;;;;;;;4215535;28;20130;-67
2022/03/07 05:19:59;;;;;;;0.10;0.10;;;;;;;;;;4206782;28;20044;-67
2022/03/07 05:22:00;;;;;;;0.10;0.10;;;;;;;;;;4202201;28;20198;-67
2022/03/07 05:24:01;;;;;;;0.47;0.10;;;;;;;;;;4209158;28;20048;-65
2022/03/07 05:26:01;;;;;;;0.47;0.28;;;;;;;;;;4187651;28;20127;-66
2022/03/07 05:28:02;;;;;;;0.25;0.10;;;;;;;;;;4171386;28;20139;-67
2022/03/07 05:30:04;;;;;;;0.35;0.20;;;;;;;;;;4199824;28;20048;-66
2022/03/07 05:32:05;;;;;;;0.20;0.20;;;;;;;;;;4183727;28;20074;-67
2022/03/07 05:34:06;;;;;;;0.05;0.05;;;;;;;;;;4211176;28;20314;-66
2022/03/07 05:36:07;;;;;;;0.25;0.10;;;;;;;;;;4198434;28;20048;-67
2022/03/07 05:38:08;;;;;;;0.68;0.15;;;;;;;;;;4204637;28;20100;-66
2022/03/07 05:40:10;;;;;;;0.15;0.00;;;;;;;;;;4175526;28;20050;-66
2022/03/07 05:42:11;;;;;;;0.05;0.05;;;;;;;;;;4209679;28;20128;-66
2022/03/07 05:44:11;;;;;;;0.38;0.15;;;;;;;;;;4188094;28;20145;-67
2022/03/07 05:46:13;;;;;;;0.57;0.10;;;;;;;;;;4186192;28;20090;-67
2022/03/07 05:48:14;;;;;;;0.30;0.30;;;;;;;;;;4191004;28;20048;-67
2022/03/07 05:50:14;;;;;;;0.40;0.20;;;;;;;;;;4192637;28;20102;-67
2022/03/07 05:52:16;;;;;;;0.75;0.20;;;;;;;;;;4187111;28;20480;-67
2022/03/07 05:54:17;;;;;;;1.13;0.20;;;;;;;;;;4192959;28;20067;-67
2022/03/07 05:56:18;;;;;;;0.88;0.40;;;;;;;;;;4188385;28;20463;-67
2022/03/07 05:58:19;;;;;;;0.73;0.20;;;;;;;;;;4188870;28;20095;-66
2022/03/07 06:00:20;;;;;;;0.38;0.20;;;;;;;;;;4180218;28;20120;-66
2022/03/07 06:02:21;;;;;;;1.08;0.20;;;;;;;;;;4186725;28;20056;-67
2022/03/07 06:04:22;;;;;;;0.20;0.20;;;;;;;;;;4186708;28;20863;-66
2022/03/07 06:06:23;;;;;;;0.50;0.20;;;;;;;;;;4194115;28;20049;-66
2022/03/07 06:08:24;;;;;;;0.82;0.38;;;;;;;;;;4196187;28;20049;-66
2022/03/07 06:10:25;;;;;;;2.38;0.25;;;;;;;;;;4190736;28;20487;-66
2022/03/07 06:12:26;;;;;;;0.77;0.20;;;;;;;;;;4187677;28;20064;-67
2022/03/07 06:14:27;;;;;;;0.65;0.30;;;;;;;;;;4194912;28;20491;-66
2022/03/07 06:16:28;;;;;;;1.45;0.30;;;;;;;;;;4169576;28;20111;-66
2022/03/07 06:18:30;;;;;;;1.17;0.32;;;;;;;;;;4188833;28;20142;-67
2022/03/07 06:20:31;;;;;;;0.45;0.25;;;;;;;;;;4184987;28;20057;-67
2022/03/07 06:22:32;;;;;;;1.75;0.25;;;;;;;;;;4187695;28;20059;-66
2022/03/07 06:24:33;;;;;;;2.63;0.20;;;;;;;;;;4185784;28;20195;-66
2022/03/07 06:26:35;;;;;;;0.65;0.38;;;;;;;;;;4188777;28;20288;-67
2022/03/07 06:28:36;;;;;;;1.13;0.40;;;;;;;;;;4194517;28;20537;-66
2022/03/07 06:30:37;;;;;;;0.77;0.40;;;;;;;;;;4167758;28;20045;-66
2022/03/07 06:32:38;;;;;;;0.77;0.35;;;;;;;;;;4187586;28;20541;-66
2022/03/07 06:34:39;;;;;;;0.82;0.30;;;;;;;;;;4183728;28;20148;-68
2022/03/07 06:36:40;;;;;;;2.00;0.40;;;;;;;;;;4182872;28;20095;-67
2022/03/07 06:38:41;;;;;;;0.70;0.30;;;;;;;;;;4181156;28;20118;-67
2022/03/07 06:40:42;;;;;;;2.00;0.40;;;;;;;;;;4177263;28;20399;-66
2022/03/07 06:42:43;;;;;;;0.75;0.30;;;;;;;;;;4187135;28;20412;-67
2022/03/07 06:44:44;;;;;;;1.30;0.22;;;;;;;;;;4182521;28;20522;-68
2022/03/07 06:46:45;;;;;;;5.25;0.30;;;;;;;;;;4175473;28;20290;-67
2022/03/07 06:48:46;;;;;;;0.90;0.30;;;;;;;;;;4189460;28;20063;-67
2022/03/07 06:50:47;;;;;;;1.63;0.52;;;;;;;;;;4187507;28;20555;-67
2022/03/07 06:52:48;;;;;;;1.55;0.20;;;;;;;;;;4191430;28;20051;-66
2022/03/07 06:54:50;;;;;;;2.25;0.20;;;;;;;;;;4183986;28;20466;-67
2022/03/07 06:56:51;;;;;;;0.60;0.60;;;;;;;;;;4198574;28;20067;-66
2022/03/07 06:58:52;;;;;;;3.00;0.43;;;;;;;;;;4200903;28;20067;-66
2022/03/07 07:00:59;;;;;;;3.25;0.30;;;;;;;;;;4194464;28;20464;-66
2022/03/07 07:03:05;;;;;;;0.88;0.30;;;;;;;;;;4182873;28;20118;-67
2022/03/07 07:05:07;;;;;;;3.30;0.40;;;;;;;;;;4197319;28;20085;-67
2022/03/07 07:07:08;;;;;;;0.73;0.30;;;;;;;;;;4195281;28;20056;-66
2022/03/07 07:09:09;;;;;;;0.98;0.32;;;;;;;;;;4173800;28;20052;-66
2022/03/07 07:11:10;;;;;;;0.88;0.30;;;;;;;;;;4171925;28;20118;-65
2022/03/07 07:13:14;;;;;;;2.13;0.38;;;;;;;;;;4160415;28;20106;-65
2022/03/07 07:15:15;;;;;;;0.77;0.20;;;;;;;;;;4196902;28;20429;-64
2022/03/07 07:17:16;;;;;;;1.60;0.38;;;;;;;;;;4196165;28;20433;-65
2022/03/07 07:19:17;;;;;;;2.38;0.20;;;;;;;;;;4197275;28;20098;-65
2022/03/07 07:21:18;;;;;;;4.28;0.30;;;;;;;;;;4193514;28;20155;-66
2022/03/07 07:23:19;;;;;;;2.10;0.30;;;;;;;;;;4195418;28;20222;-65
2022/03/07 07:25:20;;;;;;;1.77;0.30;;;;;;;;;;4194392;28;20102;-65
2022/03/07 07:27:21;;;;;;;2.10;0.60;;;;;;;;;;4188540;28;20503;-66
2022/03/07 07:29:22;;;;;;;4.38;0.45;;;;;;;;;;4186436;28;20142;-66
2022/03/07 07:31:23;;;;;;;3.45;0.40;;;;;;;;;;4169409;28;20082;-66
2022/03/07 07:33:24;;;;;;;4.82;0.50;;;;;;;;;;4172073;28;20130;-66
2022/03/07 07:35:25;;;;;;;2.15;0.45;;;;;;;;;;4190165;28;20131;-65
2022/03/07 07:37:26;;;;;;;0.75;0.32;;;;;;;;;;4191470;28;20147;-66
2022/03/07 07:39:27;;;;;;;2.20;0.40;;;;;;;;;;4188224;28;20056;-65
2022/03/07 07:41:28;;;;;;;0.93;0.30;;;;;;;;;;4193660;28;20044;-65
2022/03/07 07:43:29;;;;;;;2.58;0.57;;;;;;;;;;4194699;28;20105;-65
2022/03/07 07:45:29;;;;;;;2.05;0.50;;;;;;;;;;4195657;28;20505;-66
2022/03/07 07:47:30;;;;;;;2.75;0.43;;;;;;;;;;4196462;28;20503;-66
2022/03/07 07:49:31;;;;;;;3.38;0.60;;;;;;;;;;4177518;28;20086;-66
2022/03/07 07:51:32;;;;;;;1.23;0.35;;;;;;;;;;4180468;28;20048;-65
2022/03/07 07:53:33;;;;;;;1.23;0.50;;;;;;;;;;4191753;28;20060;-66
2022/03/07 07:55:34;;;;;;;1.20;0.47;;;;;;;;;;4174467;28;20403;-65
2022/03/07 07:57:35;;;;;;;1.40;0.40;;;;;;;;;;4189819;28;20056;-66
2022/03/07 07:59:36;;;;;;;2.40;0.50;;;;;;;;;;4192078;28;20506;-65
2022/03/07 08:01:37;;;;;;;2.05;0.43;;;;;;;;;;4189726;28;20502;-65
2022/03/07 08:03:38;;;;;;;1.48;0.30;;;;;;;;;;4173156;28;20057;-66
2022/03/07 08:05:39;;;;;;;4.05;0.68;;;;;;;;;;4171134;28;20057;-66
2022/03/07 08:07:41;;;;;;;1.55;0.30;;;;;;;;;;4175067;28;20118;-65
2022/03/07 08:09:42;;;;;;;1.80;0.30;;;;;;;;;;4175066;28;20117;-67
2022/03/07 08:11:43;;;;;;;1.52;0.40;;;;;;;;;;4184963;28;20102;-66
2022/03/07 08:13:44;;;;;;;0.60;0.30;;;;;;;;;;4189066;28;20057;-67
2022/03/07 08:15:45;;;;;;;2.35;0.38;;;;;;;;;;4168224;28;20264;-66
2022/03/07 08:17:49;;;;;;;1.83;0.20;;;;;;;;;;4186438;28;20102;-66
2022/03/07 08:19:50;;;;;;;2.00;0.30;;;;;;;;;;4165824;28;20048;-66
2022/03/07 08:21:52;;;;;;;1.48;0.40;;;;;;;;;;4182725;28;20108;-66
2022/03/07 08:23:54;;;;;;;0.52;0.25;;;;;;;;;;4172469;28;21019;-67
2022/03/07 08:25:55;;;;;;;1.20;0.22;;;;;;;;;;4191686;28;20236;-67
2022/03/07 08:27:56;;;;;;;1.92;0.30;;;;;;;;;;4190910;28;20052;-70
2022/03/07 08:29:57;;;;;;;1.30;0.28;;;;;;;;;;4191925;28;20056;-67
2022/03/07 08:31:58;;;;;;;0.82;0.30;;;;;;;;;;4167241;28;20620;-68
2022/03/07 08:33:59;;;;;;;1.83;0.60;;;;;;;;;;4187818;28;20071;-67
2022/03/07 08:36:00;;;;;;;1.77;0.40;;;;;;;;;;4190490;28;20105;-67
2022/03/07 08:38:01;;;;;;;1.30;0.45;;;;;;;;;;4192179;28;20443;-68
2022/03/07 08:40:06;;;;;;;3.20;0.50;;;;;;;;;;4169900;28;20642;-67
2022/03/07 08:42:07;;;;;;;1.70;0.52;;;;;;;;;;4189096;28;20052;-66
2022/03/07 08:44:08;;;;;;;2.28;0.50;;;;;;;;;;4189605;28;20044;-67
2022/03/07 08:46:09;;;;;;;0.88;0.30;;;;;;;;;;4189752;28;20476;-67
2022/03/07 08:48:09;;;;;;;0.95;0.20;;;;;;;;;;4191505;28;20563;-67
2022/03/07 08:50:11;;;;;;;2.67;0.50;;;;;;;;;;4188932;28;20129;-67
2022/03/07 08:52:16;;;;;;;1.45;0.40;;;;;;;;;;4176300;28;20060;-67
2022/03/07 08:54:17;;;;;;;1.30;0.40;;;;;;;;;;4175150;28;20813;-67
2022/03/07 08:56:18;;;;;;;1.92;0.30;;;;;;;;;;4171225;28;20098;-67
2022/03/07 08:58:19;;;;;;;2.60;0.28;;;;;;;;;;4189527;28;20055;-66
2022/03/07 09:00:21;;;;;;;0.80;0.30;;;;;;;;;;4172545;28;20075;-66
2022/03/07 09:02:22;;;;;;;0.55;0.20;;;;;;;;;;4157718;28;20045;-67
2022/03/07 09:04:24;;;;;;;0.68;0.22;;;;;;;;;;4163557;28;20059;-66
2022/03/07 09:06:25;;;;;;;0.45;0.22;;;;;;;;;;4186263;28;20079;-67
2022/03/07 09:08:26;;;;;;;3.35;0.30;;;;;;;;;;4190352;28;20143;-66
2022/03/07 09:10:27;;;;;;;1.15;0.30;;;;;;;;;;4176719;28;20052;-65
2022/03/07 09:12:28;;;;;;;1.25;0.50;;;;;;;;;;4193408;28;20089;-66
2022/03/07 09:14:30;;;;;;;1.60;0.60;;;;;;;;;;4175484;28;20052;-66
2022/03/07 09:16:31;;;;;;;2.17;0.20;;;;;;;;;;4191406;28;21710;-67
2022/03/07 09:18:32;;;;;;;0.70;0.20;;;;;;;;;;4190805;28;20539;-68
2022/03/07 09:20:33;;;;;;;1.80;0.30;;;;;;;;;;4181868;28;20491;-68
2022/03/07 09:22:35;;;;;;;1.67;0.30;;;;;;;;;;4193804;28;20401;-67
2022/03/07 09:24:36;;;;;;;0.52;0.20;;;;;;;;;;4194404;28;20123;-68
2022/03/07 09:26:38;;;;;;;1.85;0.20;;;;;;;;;;4171200;28;20101;-66
2022/03/07 09:28:39;;;;;;;2.17;0.22;;;;;;;;;;4190086;28;20056;-66
2022/03/07 09:30:40;;;;;;;2.70;0.35;;;;;;;;;;4166933;28;20048;-66
2022/03/07 09:32:41;;;;;;;1.13;0.20;;;;;;;;;;4172556;28;21628;-67
2022/03/07 09:34:42;;;;;;;2.78;0.32;;;;;;;;;;4197027;28;20048;-66
2022/03/07 09:36:43;;;;;;;0.98;0.40;;;;;;;;;;4191866;28;20469;-66
2022/03/07 09:38:44;;;;;;;2.13;0.45;;;;;;;;;;4191488;28;20869;-67
2022/03/07 09:40:46;;;;;;;1.65;0.20;;;;;;;;;;4178154;28;20053;-67
2022/03/07 09:42:47;;;;;;;0.93;0.22;;;;;;;;;;4193594;28;20067;-68
2022/03/07 09:44:48;;;;;;;0.60;0.30;;;;;;;;;;4173543;28;20107;-67
2022/03/07 09:46:49;;;;;;;0.55;0.20;;;;;;;;;;4189753;28;20047;-67
2022/03/07 09:48:52;;;;;;;2.42;0.20;;;;;;;;;;4185376;28;20052;-66
2022/03/07 09:50:53;;;;;;;0.10;0.10;;;;;;;;;;4163306;28;20167;-67
2022/03/07 09:52:55;;;;;;;0.75;0.20;;;;;;;;;;4190012;28;20666;-67
2022/03/07 09:54:56;;;;;;;2.42;0.30;;;;;;;;;;4168795;28;20048;-67
2022/03/07 09:56:57;;;;;;;0.65;0.25;;;;;;;;;;4190811;28;20056;-66
2022/03/07 09:58:58;;;;;;;0.80;0.22;;;;;;;;;;4187565;28;20048;-67
2022/03/07 10:01:06;;;;;;;2.25;0.25;;;;;;;;;;4186529;28;20165;-65
2022/03/07 10:03:12;;;;;;;2.58;0.40;;;;;;;;;;4189618;28;20048;-65
2022/03/07 10:05:13;;;;;;;0.65;0.40;;;;;;;;;;4187358;28;20056;-66
2022/03/07 10:07:13;;;;;;;2.10;0.10;;;;;;;;;;4180112;28;20109;-65
2022/03/07 10:09:22;;;;;;;0.32;0.10;;;;;;;;;;4178183;28;20117;-65
2022/03/07 10:11:24;;;;;;;0.40;0.20;;;;;;;;;;4189886;28;20516;-66
2022/03/07 10:13:25;;;;;;;0.30;0.20;;;;;;;;;;4190637;28;20044;-67
2022/03/07 10:15:26;;;;;;;1.38;0.20;;;;;;;;;;4166638;28;20837;-65
2022/03/07 10:17:31;;;;;;;0.65;0.20;;;;;;;;;;4190243;28;20117;-66
2022/03/07 10:19:42;;;;;;;2.85;0.20;;;;;;;;;;4189330;28;20052;-66
2022/03/07 10:21:47;;;;;;;2.38;0.20;;;;;;;;;;4188860;28;20262;-64
2022/03/07 10:23:56;;;;;;;3.63;0.40;;;;;;;;;;4188076;28;20047;-67
2022/03/07 10:26:12;;;;;;;1.08;0.30;;;;;;;;;;4188329;28;20056;-66
2022/03/07 10:28:13;;;;;;;0.73;0.30;;;;;;;;;;4186580;28;20507;-65
2022/03/07 10:30:25;;;;;;;0.70;0.20;;;;;;;;;;4189006;28;20059;-65
2022/03/07 10:32:26;;;;;;;0.13;0.10;;;;;;;;;;4181663;28;20133;-64
2022/03/07 10:34:28;;;;;;;2.42;0.40;;;;;;;;;;4190026;28;20647;-64
2022/03/07 10:36:36;;;;;;;1.75;0.20;;;;;;;;;;4170032;28;20048;-65
2022/03/07 10:38:37;;;;;;;0.40;0.10;;;;;;;;;;4184232;28;20052;-66
2022/03/07 10:40:40;;;;;;;0.95;0.20;;;;;;;;;;4181258;28;20057;-66
2022/03/07 10:42:45;;;;;;;0.77;0.30;;;;;;;;;;4190182;28;20826;-65
2022/03/07 10:44:47;;;;;;;0.28;0.10;;;;;;;;;;4192455;28;20098;-68
2022/03/07 10:46:48;;;;;;;0.98;0.22;;;;;;;;;;4194384;28;20249;-67
2022/03/07 10:48:51;;;;;;;4.03;0.22;;;;;;;;;;4181583;28;20055;-67
2022/03/07 10:50:53;;;;;;;0.50;0.20;;;;;;;;;;4194994;28;20480;-67
2022/03/07 10:52:58;;;;;;;0.60;0.32;;;;;;;;;;4196887;28;20040;-68
2022/03/07 10:55:00;;;;;;;0.63;0.30;;;;;;;;;;4195518;28;20078;-66
2022/03/07 10:57:02;;;;;;;1.10;0.35;;;;;;;;;;4190675;28;20131;-68
2022/03/07 10:59:11;;;;;;;0.30;0.20;;;;;;;;;;4194229;28;21543;-67
2022/03/07 11:01:12;;;;;;;1.15;0.40;;;;;;;;;;4180909;28;20226;-66
2022/03/07 11:03:16;;;;;;;0.47;0.10;;;;;;;;;;4197183;28;20548;-66
2022/03/07 11:05:17;;;;;;;1.17;0.25;;;;;;;;;;4197988;28;20048;-66
2022/03/07 11:07:18;;;;;;;1.13;0.20;;;;;;;;;;4181236;28;20380;-66
2022/03/07 11:09:19;;;;;;;1.00;0.10;;;;;;;;;;4195134;28;20120;-66
2022/03/07 11:11:21;;;;;;;5.82;0.43;;;;;;;;;;4183824;28;20148;-65
2022/03/07 11:13:29;;;;;;;0.35;0.30;;;;;;;;;;4196793;28;20054;-66
2022/03/07 11:15:30;;;;;;;1.05;0.30;;;;;;;;;;4197471;28;20072;-65
2022/03/07 11:17:32;;;;;;;0.73;0.30;;;;;;;;;;4197939;28;20056;-66
2022/03/07 11:19:34;;;;;;;3.90;0.47;;;;;;;;;;4178018;28;20087;-65
2022/03/07 11:21:35;;;;;;;1.17;0.20;;;;;;;;;;4186539;28;20503;-65
2022/03/07 11:23:36;;;;;;;0.50;0.20;;;;;;;;;;4193517;28;20101;-65
2022/03/07 11:25:38;;;;;;;1.00;0.20;;;;;;;;;;4188677;28;20738;-65
2022/03/07 11:27:39;;;;;;;1.27;0.40;;;;;;;;;;4198974;28;20055;-65
2022/03/07 11:29:41;;;;;;;0.45;0.10;;;;;;;;;;4167778;28;20045;-66
2022/03/07 11:31:42;;;;;;;0.50;0.20;;;;;;;;;;4190132;28;20097;-65
2022/03/07 11:33:48;;;;;;;1.17;0.10;;;;;;;;;;4187528;28;20676;-66
2022/03/07 11:35:50;;;;;;;0.65;0.35;;;;;;;;;;4173016;28;20048;-65
2022/03/07 11:37:51;;;;;;;0.30;0.20;;;;;;;;;;4172296;28;20131;-66
2022/03/07 11:39:56;;;;;;;0.95;0.17;;;;;;;;;;4190864;28;20145;-65
2022/03/07 11:42:06;;;;;;;0.28;0.17;;;;;;;;;;4193500;28;20616;-65
2022/03/07 11:44:11;;;;;;;0.63;0.20;;;;;;;;;;4189796;28;20414;-65
2022/03/07 11:46:20;;;;;;;0.55;0.20;;;;;;;;;;4176430;28;20086;-66
2022/03/07 11:48:21;;;;;;;1.23;0.20;;;;;;;;;;4196049;28;20491;-66
2022/03/07 11:50:22;;;;;;;0.20;0.10;;;;;;;;;;4199124;28;20059;-66
2022/03/07 11:52:23;;;;;;;1.60;0.20;;;;;;;;;;4191284;28;20052;-65
2022/03/07 11:54:24;;;;;;;1.23;0.20;;;;;;;;;;4193409;28;20128;-65
2022/03/07 11:56:26;;;;;;;0.60;0.20;;;;;;;;;;4189970;28;20050;-66
2022/03/07 11:58:28;;;;;;;0.65;0.20;;;;;;;;;;4189153;28;20113;-66
2022/03/07 12:00:35;;;;;;;1.13;0.30;;;;;;;;;;4175149;28;20406;-67
2022/03/07 12:02:44;;;;;;;1.40;0.35;;;;;;;;;;4183646;28;20616;-67
2022/03/07 12:04:45;;;;;;;0.77;0.40;;;;;;;;;;4186631;28;20055;-67
2022/03/07 12:06:47;;;;;;;0.10;0.10;;;;;;;;;;4189360;28;20130;-68
2022/03/07 12:08:48;;;;;;;0.65;0.20;;;;;;;;;;4174965;28;20079;-68